This is the latest recevied weather packets stored in our database for station/object SP1BMW-13. If no packets are shown the sender has not sent any weather packets the latest 10 day(s).
| Time | Temp. | Humidity | Pressure | Rain* | Wind** | Luminosity | Snow |
|---|---|---|---|---|---|---|---|
| 1787486204 | 18.33° C | 60% | 1017.5 hPa | 0 mm | 2.24 m/s, 300° | 238 W/m² | - |
| 1787486144 | 18.33° C | 61% | 1017.3 hPa | 0 mm | 1.79 m/s, 185° | 270 W/m² | - |
| 1787486084 | 18.33° C | 61% | 1017.3 hPa | 0 mm | 0.89 m/s, 271° | 292 W/m² | - |
| 1787486024 | 18.33° C | 60% | 1017.3 hPa | 0 mm | 1.79 m/s, 195° | 279 W/m² | - |
| 1787485904 | 18.33° C | 60% | 1017.5 hPa | 0 mm | 2.68 m/s, 148° | 257 W/m² | - |
| 1787485844 | 18.33° C | 60% | 1017.4 hPa | 0 mm | 1.79 m/s, 294° | 285 W/m² | - |
| 1787485784 | 18.33° C | 59% | 1017.6 hPa | 0 mm | 1.79 m/s, 12° | 298 W/m² | - |
| 1787485725 | 18.33° C | 60% | 1017.2 hPa | 0 mm | 2.24 m/s, 288° | 307 W/m² | - |
| 1787485664 | 18.33° C | 61% | 1017.3 hPa | 0 mm | 1.34 m/s, 254° | 312 W/m² | - |
| 1787485604 | 18.33° C | 61% | 1017.4 hPa | 0 mm | 1.79 m/s, 207° | 309 W/m² | - |
| 1787485545 | 18.33° C | 61% | 1017.3 hPa | 0 mm | 0.89 m/s, 326° | 305 W/m² | - |
| 1787485484 | 18.33° C | 61% | 1017.2 hPa | 0 mm | 0.89 m/s, 317° | 310 W/m² | - |
| 1787485424 | 18.33° C | 60% | 1017.3 hPa | 0 mm | 1.79 m/s, 144° | 322 W/m² | - |
| 1787485364 | 18.33° C | 60% | 1017.2 hPa | 0 mm | 1.34 m/s, 293° | 324 W/m² | - |
| 1787485304 | 18.89° C | 59% | 1017.4 hPa | 0 mm | 1.79 m/s, 292° | 303 W/m² | - |
| 1787485244 | 18.89° C | 60% | 1017.2 hPa | 0 mm | 1.79 m/s, 285° | 296 W/m² | - |
| 1787485185 | 18.89° C | 59% | 1017.3 hPa | 0 mm | 2.68 m/s, 87° | 290 W/m² | - |
| 1787485124 | 18.89° C | 60% | 1017.3 hPa | 0 mm | 1.79 m/s, 283° | 298 W/m² | - |
| 1787485064 | 18.89° C | 60% | 1017.4 hPa | 0 mm | 1.34 m/s, 51° | 314 W/m² | - |
| 1787485004 | 18.89° C | 60% | 1017.2 hPa | 0 mm | 1.34 m/s, 221° | 346 W/m² | - |
| 1787484944 | 18.33° C | 60% | 1017.2 hPa | 0 mm | 1.34 m/s, 335° | 404 W/m² | - |
| 1787484885 | 18.33° C | 60% | 1017.2 hPa | 0 mm | 1.79 m/s, 131° | 376 W/m² | - |
| 1787484824 | 18.33° C | 60% | 1017.2 hPa | 0 mm | 1.79 m/s, 123° | 960 W/m² | - |
| 1787484764 | 18.33° C | 60% | 1017.2 hPa | 0 mm | 1.79 m/s, 279° | 903 W/m² | - |
| 1787484704 | 18.33° C | 60% | 1017.3 hPa | 0 mm | 1.79 m/s, 276° | 375 W/m² | - |
* Rain latest hour (hover to see other rain measurements)
** Current wind speed in m/s (hover to see current wind gust speed)